createdAt,value
2023-03-17T00:01:44.761Z,2.23
2023-03-17T00:04:12.672Z,2.22
2023-03-17T00:06:40.227Z,2.16
2023-03-17T00:09:12.128Z,2.26
2023-03-17T00:11:38.553Z,2.10
2023-03-17T00:14:04.991Z,2.07
2023-03-17T00:16:36.807Z,2.13
2023-03-17T00:19:04.066Z,2.14
2023-03-17T00:21:32.972Z,2.27
2023-03-17T00:24:00.312Z,2.16
2023-03-17T00:26:28.457Z,2.12
2023-03-17T00:28:55.230Z,2.12
2023-03-17T00:31:25.124Z,2.29
2023-03-17T00:33:54.487Z,2.20
2023-03-17T00:36:24.034Z,2.33
2023-03-17T00:38:51.203Z,2.28
2023-03-17T00:41:18.391Z,1.99
2023-03-17T00:43:45.544Z,2.09
2023-03-17T00:46:27.504Z,2.20
2023-03-17T00:48:55.055Z,2.03
2023-03-17T00:51:23.252Z,2.07
2023-03-17T00:53:49.935Z,1.98
2023-03-17T00:56:19.205Z,1.96
2023-03-17T00:58:47.496Z,1.91
2023-03-17T01:01:16.052Z,1.87
2023-03-17T01:03:42.560Z,1.77
2023-03-17T01:06:12.705Z,1.66
2023-03-17T01:08:40.730Z,1.88
2023-03-17T01:11:18.585Z,1.81
2023-03-17T01:13:46.955Z,1.60
2023-03-17T01:16:15.541Z,1.72
2023-03-17T01:18:42.257Z,1.51
2023-03-17T01:21:09.094Z,1.62
2023-03-17T01:23:35.636Z,1.73
2023-03-17T01:26:02.103Z,1.51
2023-03-17T01:28:28.827Z,1.40
2023-03-17T01:30:55.518Z,1.43
2023-03-17T01:33:22.213Z,1.36
2023-03-17T01:35:50.349Z,1.24
2023-03-17T01:38:17.472Z,1.34
2023-03-17T01:40:49.692Z,1.32
2023-03-17T01:43:21.398Z,1.29
2023-03-17T01:46:06.717Z,1.00
2023-03-17T01:48:48.612Z,0.89
2023-03-17T01:51:21.337Z,0.84
2023-03-17T01:53:51.118Z,0.63
2023-03-17T01:56:18.057Z,0.60
2023-03-17T01:58:48.235Z,0.50
2023-03-17T02:01:15.151Z,0.56
2023-03-17T02:03:42.548Z,0.59
2023-03-17T02:06:09.835Z,0.57
2023-03-17T02:08:36.358Z,0.36
2023-03-17T02:11:05.010Z,0.39
2023-03-17T02:13:33.190Z,0.35
2023-03-17T02:16:00.046Z,0.26
2023-03-17T02:18:27.091Z,0.49
2023-03-17T02:20:53.466Z,0.44
2023-03-17T02:23:22.821Z,0.49
2023-03-17T02:25:50.440Z,0.51
2023-03-17T02:28:21.498Z,0.51
2023-03-17T02:30:49.000Z,0.43
2023-03-17T02:33:17.072Z,0.38
2023-03-17T02:35:43.622Z,0.44
2023-03-17T02:38:10.392Z,0.44
2023-03-17T02:40:37.004Z,0.48
2023-03-17T02:43:05.046Z,0.37
2023-03-17T02:45:31.827Z,0.45
2023-03-17T02:47:59.317Z,0.44
2023-03-17T02:50:28.951Z,0.38
2023-03-17T02:52:56.057Z,0.29
2023-03-17T02:55:22.788Z,0.40
2023-03-17T02:57:49.339Z,0.37
2023-03-17T03:00:16.145Z,0.40
2023-03-17T03:02:42.827Z,0.50
2023-03-17T03:05:10.670Z,0.45
2023-03-17T03:07:37.429Z,0.55
2023-03-17T03:10:04.330Z,0.48
2023-03-17T03:12:30.835Z,0.58
2023-03-17T03:14:57.288Z,0.44
2023-03-17T03:17:23.724Z,0.69
2023-03-17T03:19:50.433Z,0.59
2023-03-17T03:22:16.907Z,0.66
2023-03-17T03:24:43.929Z,0.58
2023-03-17T03:27:10.893Z,0.74
2023-03-17T03:29:38.220Z,0.78
2023-03-17T03:32:04.949Z,0.79
2023-03-17T03:34:31.825Z,0.86
2023-03-17T03:36:58.291Z,0.89
2023-03-17T03:39:24.780Z,0.83
2023-03-17T03:41:51.237Z,0.76
2023-03-17T03:44:17.726Z,0.97
2023-03-17T03:46:44.231Z,0.88
2023-03-17T03:49:10.737Z,0.85
2023-03-17T03:51:37.207Z,0.93
2023-03-17T03:54:03.639Z,0.91
2023-03-17T03:56:30.222Z,0.91
2023-03-17T03:58:57.149Z,0.82
2023-03-17T04:01:24.529Z,1.10
2023-03-17T04:03:51.239Z,0.99
2023-03-17T04:06:17.824Z,1.07
2023-03-17T04:08:44.338Z,1.30
2023-03-17T04:11:10.795Z,1.23
2023-03-17T04:13:38.374Z,1.19
2023-03-17T04:16:05.190Z,1.20
2023-03-17T04:18:31.753Z,1.23
2023-03-17T04:20:58.330Z,1.25
2023-03-17T04:23:24.848Z,1.38
2023-03-17T04:25:52.791Z,1.46
2023-03-17T04:28:20.469Z,1.58
2023-03-17T04:30:47.053Z,1.23
2023-03-17T04:33:13.757Z,1.18
2023-03-17T04:35:40.705Z,1.22
2023-03-17T04:38:07.217Z,1.17
2023-03-17T04:40:33.705Z,1.16
2023-03-17T04:43:01.900Z,1.09
2023-03-17T04:45:29.867Z,1.08
2023-03-17T04:47:56.341Z,1.11
2023-03-17T04:50:22.831Z,0.85
2023-03-17T04:52:49.314Z,0.85
2023-03-17T04:55:16.460Z,0.77
2023-03-17T04:57:44.225Z,0.92
2023-03-17T05:00:12.704Z,0.74
2023-03-17T05:02:39.310Z,0.68
2023-03-17T05:05:06.140Z,0.68
2023-03-17T05:07:34.127Z,0.66
2023-03-17T05:10:00.819Z,0.64
2023-03-17T05:12:27.817Z,0.59
2023-03-17T05:14:54.257Z,0.46
2023-03-17T05:17:20.721Z,0.53
2023-03-17T05:19:47.417Z,0.56
2023-03-17T05:22:13.871Z,0.47
2023-03-17T05:24:40.305Z,0.46
2023-03-17T05:27:06.792Z,0.34
2023-03-17T05:29:33.203Z,0.35
2023-03-17T05:31:59.845Z,0.29
2023-03-17T05:34:26.983Z,0.33
2023-03-17T05:36:53.585Z,0.29
2023-03-17T05:39:20.007Z,0.12
2023-03-17T05:41:47.026Z,0.24
2023-03-17T05:44:13.543Z,0.24
2023-03-17T05:46:40.629Z,0.20
2023-03-17T05:49:07.577Z,0.35
2023-03-17T05:51:36.768Z,0.30
2023-03-17T05:54:03.530Z,0.31
2023-03-17T05:56:33.470Z,0.34
2023-03-17T05:59:01.592Z,0.51
2023-03-17T06:01:29.204Z,0.56
2023-03-17T06:03:56.107Z,0.59
2023-03-17T06:06:24.513Z,0.69
2023-03-17T06:08:51.600Z,0.86
2023-03-17T06:11:19.888Z,0.85
2023-03-17T06:13:46.897Z,0.95
2023-03-17T06:16:13.709Z,1.04
2023-03-17T06:18:40.537Z,1.07
2023-03-17T06:21:07.232Z,1.13
2023-03-17T06:23:33.925Z,1.09
2023-03-17T06:26:00.533Z,1.29
2023-03-17T06:28:26.977Z,1.42
2023-03-17T06:30:53.484Z,1.52
2023-03-17T06:33:20.030Z,1.54
2023-03-17T06:35:46.719Z,1.66
2023-03-17T06:38:13.518Z,1.84
2023-03-17T06:40:40.236Z,1.88
2023-03-17T06:43:07.492Z,1.87
2023-03-17T06:45:34.241Z,2.00
2023-03-17T06:48:01.624Z,2.09
2023-03-17T06:50:28.315Z,2.09
2023-03-17T06:52:54.767Z,2.13
2023-03-17T06:55:21.544Z,2.25
2023-03-17T06:57:50.512Z,2.48
2023-03-17T07:00:18.505Z,2.54
2023-03-17T07:02:44.947Z,2.63
2023-03-17T07:05:12.582Z,2.67
2023-03-17T07:07:39.500Z,2.75
2023-03-17T07:10:06.968Z,2.79
2023-03-17T07:12:33.726Z,2.84
2023-03-17T07:15:01.318Z,2.94
2023-03-17T07:17:28.069Z,3.07
2023-03-17T07:19:54.532Z,3.36
2023-03-17T07:22:21.036Z,3.70
2023-03-17T07:24:49.036Z,5.11
2023-03-17T07:27:20.834Z,7.19
2023-03-17T07:29:49.147Z,9.66
2023-03-17T07:32:15.592Z,11.21
2023-03-17T07:34:42.182Z,12.65
2023-03-17T07:37:10.204Z,12.59
2023-03-17T07:39:36.684Z,12.54
2023-03-17T07:42:03.205Z,12.78
2023-03-17T07:44:30.429Z,12.38
2023-03-17T07:46:56.906Z,11.90
2023-03-17T07:49:40.073Z,11.65
2023-03-17T07:52:11.704Z,10.54
2023-03-17T07:54:42.206Z,9.80
2023-03-17T07:57:09.372Z,9.25
2023-03-17T07:59:35.915Z,9.24
2023-03-17T08:02:02.445Z,9.06
2023-03-17T08:04:29.177Z,8.63
2023-03-17T08:06:56.999Z,8.85
2023-03-17T08:09:23.693Z,8.27
2023-03-17T08:11:50.577Z,7.73
2023-03-17T08:14:17.058Z,7.84
2023-03-17T08:16:43.612Z,7.59
2023-03-17T08:19:11.008Z,7.64
2023-03-17T08:21:37.664Z,7.66
2023-03-17T08:24:05.196Z,7.44
2023-03-17T08:26:32.214Z,7.26
2023-03-17T08:28:58.782Z,7.63
2023-03-17T08:31:25.300Z,7.86
2023-03-17T08:33:54.107Z,7.28
2023-03-17T08:36:21.332Z,7.75
2023-03-17T08:38:48.722Z,7.68
2023-03-17T08:41:21.209Z,7.59
2023-03-17T08:43:48.168Z,7.57
2023-03-17T08:46:20.752Z,7.57
2023-03-17T08:48:49.306Z,7.44
2023-03-17T08:51:18.586Z,7.65
2023-03-17T08:53:46.393Z,7.63
2023-03-17T08:56:14.037Z,7.14
2023-03-17T08:58:42.504Z,7.52
2023-03-17T09:01:13.596Z,7.66
2023-03-17T09:03:40.806Z,7.71
2023-03-17T09:06:09.406Z,7.85
2023-03-17T09:08:39.779Z,7.80
2023-03-17T09:11:08.385Z,7.89
2023-03-17T09:13:37.849Z,8.04
2023-03-17T09:16:05.715Z,8.14
2023-03-17T09:18:33.045Z,8.09
2023-03-17T09:20:59.662Z,8.06
2023-03-17T09:23:26.218Z,8.12
2023-03-17T09:25:52.738Z,8.56
2023-03-17T09:28:19.275Z,8.88
2023-03-17T09:30:46.008Z,8.73
2023-03-17T09:33:13.903Z,8.61
2023-03-17T09:35:41.250Z,8.80
2023-03-17T09:38:09.481Z,9.00
2023-03-17T09:40:46.681Z,8.67
2023-03-17T09:43:20.275Z,9.22
2023-03-17T09:45:47.599Z,9.28
2023-03-17T09:48:24.094Z,9.44
2023-03-17T09:51:14.245Z,9.42
2023-03-17T09:53:48.608Z,9.58
2023-03-17T09:56:18.770Z,9.54
2023-03-17T09:59:01.077Z,9.88
2023-03-17T10:01:28.049Z,9.83
2023-03-17T10:03:54.680Z,9.78
2023-03-17T10:06:38.779Z,9.90
2023-03-17T10:09:17.123Z,9.98
2023-03-17T10:11:47.725Z,10.09
2023-03-17T10:15:00.838Z,10.23
2023-03-17T10:17:39.803Z,10.39
2023-03-17T10:20:15.783Z,10.49
2023-03-17T10:22:48.301Z,10.68
2023-03-17T10:25:21.903Z,10.69
2023-03-17T10:27:57.194Z,10.75
2023-03-17T10:30:24.305Z,10.77
2023-03-17T10:32:52.450Z,10.87
2023-03-17T10:35:20.188Z,10.84
2023-03-17T10:37:47.591Z,10.78
2023-03-17T10:40:30.320Z,11.13
2023-03-17T10:43:07.911Z,11.17
2023-03-17T10:45:40.933Z,11.31
2023-03-17T10:48:09.614Z,11.49
2023-03-17T10:50:38.064Z,11.75
2023-03-17T10:53:10.783Z,11.97
2023-03-17T10:55:44.646Z,12.15
2023-03-17T10:58:15.956Z,12.35
2023-03-17T11:01:15.066Z,11.87
2023-03-17T11:03:41.845Z,12.25
2023-03-17T11:06:10.398Z,12.42
2023-03-17T11:08:50.061Z,12.64
2023-03-17T11:11:33.159Z,12.82
2023-03-17T11:14:13.360Z,13.16
2023-03-17T11:17:04.289Z,13.36
2023-03-17T11:19:52.870Z,13.24
2023-03-17T11:22:40.039Z,13.45
2023-03-17T11:25:19.348Z,13.67
2023-03-17T11:27:56.702Z,13.57
2023-03-17T11:30:36.851Z,13.51
2023-03-17T11:33:28.105Z,13.50
2023-03-17T11:36:01.617Z,13.49
2023-03-17T11:38:30.826Z,13.04
2023-03-17T11:41:11.290Z,13.30
2023-03-17T11:44:03.087Z,13.60
2023-03-17T11:46:37.116Z,13.65
2023-03-17T11:49:32.541Z,13.62
2023-03-17T11:52:28.614Z,13.63
2023-03-17T11:55:14.234Z,13.67
2023-03-17T11:57:47.312Z,13.56
2023-03-17T12:00:20.558Z,13.91
2023-03-17T12:02:56.318Z,13.76
2023-03-17T12:05:26.123Z,13.88
2023-03-17T12:07:58.431Z,13.77
2023-03-17T12:10:41.721Z,13.81
2023-03-17T12:13:15.362Z,13.68
2023-03-17T12:15:51.124Z,13.82
2023-03-17T12:18:32.863Z,13.85
2023-03-17T12:21:07.578Z,13.77
2023-03-17T12:23:45.214Z,13.71
2023-03-17T12:26:25.637Z,13.70
2023-03-17T12:29:11.571Z,13.84
2023-03-17T12:31:44.540Z,13.93
2023-03-17T12:34:20.978Z,13.89
2023-03-17T12:36:48.843Z,13.88
2023-03-17T12:39:24.906Z,13.86
2023-03-17T12:42:21.138Z,14.03
2023-03-17T12:44:50.446Z,14.16
2023-03-17T12:48:02.991Z,14.15
2023-03-17T12:51:07.636Z,14.25
2023-03-17T12:53:37.813Z,14.16
2023-03-17T12:56:27.499Z,14.21
2023-03-17T12:59:09.146Z,14.29
2023-03-17T13:02:23.238Z,14.30
2023-03-17T13:05:00.823Z,14.19
2023-03-17T13:07:52.641Z,14.27
2023-03-17T13:10:39.815Z,14.31
2023-03-17T13:13:12.975Z,14.26
2023-03-17T13:15:40.823Z,14.22
2023-03-17T13:18:16.440Z,14.21
2023-03-17T13:20:59.339Z,14.27
2023-03-17T13:23:41.567Z,14.44
2023-03-17T13:26:12.851Z,14.40
2023-03-17T13:28:40.692Z,14.44
2023-03-17T13:31:16.400Z,14.28
2023-03-17T13:33:52.050Z,14.20
2023-03-17T13:36:45.734Z,14.30
2023-03-17T13:39:25.577Z,14.23
2023-03-17T13:42:11.847Z,14.20
2023-03-17T13:44:58.143Z,14.29
2023-03-17T13:47:38.144Z,14.41
2023-03-17T13:50:13.817Z,14.37
2023-03-17T13:52:48.402Z,14.43
2023-03-17T13:55:17.941Z,14.54
2023-03-17T13:57:53.916Z,14.43
2023-03-17T14:00:26.987Z,14.39
2023-03-17T14:03:03.718Z,14.32
2023-03-17T14:05:37.779Z,14.43
2023-03-17T14:08:21.656Z,14.60
2023-03-17T14:10:56.550Z,14.56
2023-03-17T14:13:31.740Z,14.39
2023-03-17T14:16:12.355Z,14.41
2023-03-17T14:18:42.227Z,14.30
2023-03-17T14:21:24.022Z,14.27
2023-03-17T14:23:59.010Z,14.41
2023-03-17T14:26:28.862Z,14.43
2023-03-17T14:28:58.521Z,14.26
2023-03-17T14:31:28.014Z,14.36
2023-03-17T14:33:56.766Z,14.43
2023-03-17T14:36:24.419Z,14.41
2023-03-17T14:38:53.296Z,14.33
2023-03-17T14:41:25.355Z,14.07
2023-03-17T14:43:57.128Z,14.19
2023-03-17T14:46:27.381Z,14.24
2023-03-17T14:49:01.359Z,14.28
2023-03-17T14:51:33.611Z,14.21
2023-03-17T14:54:03.985Z,14.21
2023-03-17T14:56:38.861Z,14.17
2023-03-17T14:59:08.449Z,14.07
2023-03-17T15:01:37.646Z,14.15
2023-03-17T15:04:12.174Z,13.97
2023-03-17T15:06:50.984Z,14.02
2023-03-17T15:09:18.912Z,14.15
2023-03-17T15:11:46.842Z,14.24
2023-03-17T15:14:20.995Z,14.14
2023-03-17T15:16:51.837Z,13.98
2023-03-17T15:19:22.662Z,14.17
2023-03-17T15:21:49.741Z,14.18
2023-03-17T15:24:25.421Z,14.27
2023-03-17T15:27:00.280Z,14.25
2023-03-17T15:29:28.749Z,14.19
2023-03-17T15:32:09.971Z,14.19
2023-03-17T15:34:36.455Z,14.15
2023-03-17T15:37:02.941Z,14.19
2023-03-17T15:39:29.406Z,14.25
2023-03-17T15:41:55.989Z,14.31
2023-03-17T15:44:22.406Z,14.37
2023-03-17T15:46:48.930Z,14.19
2023-03-17T15:49:15.350Z,14.14
2023-03-17T15:51:41.847Z,14.04
2023-03-17T15:54:13.654Z,13.98
2023-03-17T15:56:40.566Z,14.15
2023-03-17T15:59:07.018Z,14.15
2023-03-17T16:01:33.547Z,14.12
2023-03-17T16:04:00.000Z,14.09
2023-03-17T16:06:26.619Z,14.00
2023-03-17T16:08:53.184Z,13.96
2023-03-17T16:11:28.144Z,13.90
2023-03-17T16:13:56.300Z,13.69
2023-03-17T16:16:31.730Z,13.80
2023-03-17T16:18:58.455Z,13.67
2023-03-17T16:21:26.535Z,13.55
2023-03-17T16:23:53.231Z,13.48
2023-03-17T16:26:19.677Z,13.33
2023-03-17T16:28:47.719Z,13.10
2023-03-17T16:31:31.361Z,13.38
2023-03-17T16:33:57.887Z,13.28
2023-03-17T16:36:25.664Z,13.35
2023-03-17T16:38:53.514Z,13.30
2023-03-17T16:41:27.154Z,13.11
2023-03-17T16:43:58.859Z,13.04
2023-03-17T16:46:26.811Z,12.96
2023-03-17T16:48:53.431Z,12.79
2023-03-17T16:51:20.092Z,12.83
2023-03-17T16:53:47.092Z,12.68
2023-03-17T16:56:17.612Z,12.81
2023-03-17T16:58:46.721Z,12.79
2023-03-17T17:01:17.287Z,12.62
2023-03-17T17:03:44.029Z,12.65
2023-03-17T17:06:14.286Z,12.48
2023-03-17T17:08:45.351Z,12.40
2023-03-17T17:11:13.583Z,12.36
2023-03-17T17:13:41.357Z,12.30
2023-03-17T17:16:16.744Z,12.27
2023-03-17T17:18:43.247Z,11.89
2023-03-17T17:21:09.722Z,11.62
2023-03-17T17:23:36.168Z,11.53
2023-03-17T17:26:02.599Z,11.74
2023-03-17T17:28:29.098Z,11.59
2023-03-17T17:30:55.633Z,11.39
2023-03-17T17:33:22.119Z,11.53
2023-03-17T17:35:49.815Z,11.79
2023-03-17T17:38:27.905Z,11.61
2023-03-17T17:40:56.705Z,11.64
2023-03-17T17:43:24.423Z,11.35
2023-03-17T17:45:51.903Z,11.35
2023-03-17T17:48:22.374Z,11.33
2023-03-17T17:50:50.528Z,11.05
2023-03-17T17:53:18.010Z,10.72
2023-03-17T17:55:46.295Z,10.90
2023-03-17T17:58:17.525Z,10.75
2023-03-17T18:00:44.063Z,10.49
2023-03-17T18:03:10.971Z,10.35
2023-03-17T18:05:37.596Z,10.00
2023-03-17T18:08:04.592Z,9.79
2023-03-17T18:10:31.879Z,10.01
2023-03-17T18:12:58.657Z,9.82
2023-03-17T18:15:27.213Z,9.81
2023-03-17T18:17:54.297Z,9.64
2023-03-17T18:20:22.734Z,9.72
2023-03-17T18:22:50.237Z,9.46
2023-03-17T18:25:17.395Z,9.57
2023-03-17T18:27:44.245Z,9.44
2023-03-17T18:30:14.399Z,9.36
2023-03-17T18:32:43.000Z,9.11
2023-03-17T18:35:13.209Z,8.85
2023-03-17T18:37:39.859Z,8.99
2023-03-17T18:40:14.607Z,8.96
2023-03-17T18:42:41.925Z,8.84
2023-03-17T18:45:09.982Z,8.84
2023-03-17T18:47:36.626Z,8.69
2023-03-17T18:50:04.018Z,8.79
2023-03-17T18:52:32.031Z,8.43
2023-03-17T18:54:59.068Z,8.62
2023-03-17T18:57:27.480Z,8.54
2023-03-17T18:59:55.139Z,8.27
2023-03-17T19:02:21.646Z,8.20
2023-03-17T19:04:48.180Z,8.21
2023-03-17T19:07:14.998Z,8.22
2023-03-17T19:09:41.451Z,7.55
2023-03-17T19:12:08.361Z,8.08
2023-03-17T19:14:36.937Z,7.98
2023-03-17T19:17:04.424Z,7.90
2023-03-17T19:19:31.974Z,7.26
2023-03-17T19:21:58.522Z,7.20
2023-03-17T19:24:25.031Z,7.81
2023-03-17T19:26:51.561Z,7.55
2023-03-17T19:29:18.343Z,7.45
2023-03-17T19:31:46.150Z,7.04
2023-03-17T19:34:15.203Z,7.43
2023-03-17T19:36:43.673Z,7.52
2023-03-17T19:39:13.818Z,7.43
2023-03-17T19:41:40.780Z,7.51
2023-03-17T19:44:07.637Z,6.70
2023-03-17T19:46:36.525Z,7.26
2023-03-17T19:49:04.629Z,7.15
2023-03-17T19:51:32.962Z,7.25
2023-03-17T19:54:00.163Z,7.23
2023-03-17T19:56:27.867Z,6.96
2023-03-17T19:58:55.433Z,6.83
2023-03-17T20:01:22.960Z,7.11
2023-03-17T20:03:49.593Z,6.60
2023-03-17T20:06:16.798Z,6.60
2023-03-17T20:08:43.977Z,6.92
2023-03-17T20:11:12.076Z,7.05
2023-03-17T20:13:40.189Z,6.50
2023-03-17T20:16:08.013Z,6.83
2023-03-17T20:18:38.724Z,6.50
2023-03-17T20:21:06.588Z,6.52
2023-03-17T20:23:33.499Z,6.79
2023-03-17T20:26:00.013Z,6.79
2023-03-17T20:28:27.740Z,6.01
2023-03-17T20:31:00.437Z,6.52
2023-03-17T20:33:27.716Z,6.15
2023-03-17T20:35:54.267Z,6.20
2023-03-17T20:38:21.247Z,6.31
2023-03-17T20:40:47.698Z,6.17
2023-03-17T20:43:14.190Z,6.12
2023-03-17T20:45:41.082Z,6.10
2023-03-17T20:48:10.535Z,5.81
2023-03-17T20:50:38.508Z,6.17
2023-03-17T20:53:08.705Z,5.74
2023-03-17T20:55:36.347Z,5.67
2023-03-17T20:58:06.143Z,5.64
2023-03-17T21:00:33.023Z,6.00
2023-03-17T21:03:00.420Z,5.91
2023-03-17T21:05:27.718Z,5.30
2023-03-17T21:07:54.491Z,5.76
2023-03-17T21:10:21.059Z,5.77
2023-03-17T21:12:47.586Z,5.52
2023-03-17T21:15:15.096Z,5.71
2023-03-17T21:17:42.280Z,5.41
2023-03-17T21:20:11.881Z,4.86
2023-03-17T21:22:39.907Z,5.27
2023-03-17T21:25:08.751Z,5.45
2023-03-17T21:27:39.490Z,5.39
2023-03-17T21:30:09.615Z,5.67
2023-03-17T21:32:36.657Z,5.73
2023-03-17T21:35:04.006Z,5.68
2023-03-17T21:37:30.682Z,5.71
2023-03-17T21:39:58.013Z,5.21
2023-03-17T21:42:24.725Z,5.84
2023-03-17T21:44:52.217Z,5.39
2023-03-17T21:47:19.488Z,5.78
2023-03-17T21:49:46.281Z,5.47
2023-03-17T21:52:14.900Z,5.78
2023-03-17T21:54:41.882Z,5.10
2023-03-17T21:57:12.061Z,5.48
2023-03-17T21:59:39.944Z,5.44
2023-03-17T22:02:06.491Z,5.48
2023-03-17T22:04:33.004Z,5.42
2023-03-17T22:06:59.487Z,5.30
2023-03-17T22:09:26.290Z,5.38
2023-03-17T22:11:53.013Z,5.14
2023-03-17T22:14:20.581Z,5.31
2023-03-17T22:16:48.721Z,5.38
2023-03-17T22:19:17.087Z,5.26
2023-03-17T22:21:44.226Z,5.26
2023-03-17T22:24:11.237Z,5.12
2023-03-17T22:26:37.832Z,4.40
2023-03-17T22:29:04.438Z,5.19
2023-03-17T22:31:31.139Z,5.29
2023-03-17T22:33:59.302Z,5.38
2023-03-17T22:36:26.689Z,5.36
2023-03-17T22:38:53.446Z,5.30
2023-03-17T22:41:22.744Z,4.87
2023-03-17T22:43:50.061Z,5.13
2023-03-17T22:46:16.862Z,5.09
2023-03-17T22:48:44.232Z,4.58
2023-03-17T22:51:14.454Z,4.84
2023-03-17T22:53:40.940Z,4.60
2023-03-17T22:56:08.628Z,4.96
2023-03-17T22:58:35.819Z,4.42
2023-03-17T23:01:02.655Z,4.88
2023-03-17T23:03:29.890Z,5.00
2023-03-17T23:05:59.522Z,4.92
2023-03-17T23:08:29.226Z,4.53
2023-03-17T23:10:56.166Z,4.93
2023-03-17T23:13:24.112Z,4.95
2023-03-17T23:15:50.560Z,5.01
2023-03-17T23:18:17.254Z,4.60
2023-03-17T23:20:43.806Z,4.77
2023-03-17T23:23:11.653Z,4.90
2023-03-17T23:25:38.598Z,4.69
2023-03-17T23:28:07.572Z,4.85
2023-03-17T23:30:35.747Z,4.82
2023-03-17T23:33:04.918Z,4.79
2023-03-17T23:35:32.175Z,4.84
2023-03-17T23:37:59.652Z,4.79
2023-03-17T23:40:26.326Z,4.54
2023-03-17T23:42:55.047Z,4.61
2023-03-17T23:45:23.140Z,4.64
2023-03-17T23:47:51.585Z,4.61
2023-03-17T23:50:19.510Z,4.36
2023-03-17T23:52:47.134Z,4.55
2023-03-17T23:55:14.751Z,4.65
2023-03-17T23:57:41.545Z,4.17
